METAR AND TAF INFORMATION
METAR FOR YGLA
ADDS - METARS form results

(1635 UTC 23 April 2019)
Data provider http://aviationweather.gov/metar/data/
 
METAR text: YGLA 231630Z AUTO 14010KT 9999 // SCT012 BKN025 BKN037 22/20 Q1017
Conditions at: YGLA (GLADSTONE , AU) observed 1630 UTC 23 April 2019
Temperature: 22.0°C (72°F)
Dewpoint: 20.0°C (68°F) [RH = 88%]
Pressure (altimeter): 30.03 inches Hg (1017.0 mb)
Winds: from the SE (140 degrees) at 12 MPH (10 knots; 5.1 m/s)
Visibility: 6 or more miles (10+ km)
Ceiling: 2500 feet AGL
Clouds: scattered clouds at 1200 feet AGL
broken clouds at 2500 feet AGL
broken clouds at 3700 feet AGL
Weather: no significant weather observed at this time

METAR text: YGLA 231621Z AUTO 14010KT 9999 // SCT010 BKN014 BKN027 22/20 Q1017
Conditions at: YGLA (GLADSTONE , AU) observed 1621 UTC 23 April 2019
Temperature: 22.0°C (72°F)
Dewpoint: 20.0°C (68°F) [RH = 88%]
Pressure (altimeter): 30.03 inches Hg (1017.0 mb)
Winds: from the SE (140 degrees) at 12 MPH (10 knots; 5.1 m/s)
Visibility: 6 or more miles (10+ km)
Ceiling: 1400 feet AGL
Clouds: scattered clouds at 1000 feet AGL
broken clouds at 1400 feet AGL
broken clouds at 2700 feet AGL
Weather: no significant weather observed at this time

METAR text: YGLA 231600Z AUTO 14009KT 3500 // SCT008 BKN012 22/21 Q1017
Conditions at: YGLA (GLADSTONE , AU) observed 1600 UTC 23 April 2019
Temperature: 22.0°C (72°F)
Dewpoint: 21.0°C (70°F) [RH = 94%]
Pressure (altimeter): 30.03 inches Hg (1017.0 mb)
Winds: from the SE (140 degrees) at 10 MPH (9 knots; 4.6 m/s)
Visibility: 2.17 miles (3.49 km)
Ceiling: 1200 feet AGL
Clouds: scattered clouds at 800 feet AGL
broken clouds at 1200 feet AGL
Weather: no significant weather observed at this time

Forecast for: YGLA (GLADSTONE , AU)
Text: TAF YGLA 231129Z 2312/2324 14012KT 9999 -SHRA SCT015 BKN030 INTER 2312/2324 3000 SHRA BKN015
Forecast period: 1200 UTC 23 April 2019 to 0000 UTC 24 April 2019
Forecast type: FROM: standard forecast or significant change
Winds: from the SE (140 degrees) at 14 MPH (12 knots; 6.2 m/s)
Visibility: 6 or more miles 10+ km)
Ceiling: 3000 feet AGL
Clouds: scattered clouds at 1500 feet AGL
broken clouds at 3000 feet AGL
Weather: -SHRA  (light rain showers)
Text:
Forecast period: 1200 UTC 23 April 2019 to 0000 UTC 24 April 2019
Forecast type: TEMPORARY: The following changes expected for less than half the time period
Visibility: 1.86 miles (2.99 km)
Ceiling: 1500 feet AGL
Clouds: broken clouds at 1500 feet AGL
Weather: SHRA  (rain showers)

 AIRPORT MAP

 RUNWAY INFORMATION
Runway 10 Runway length 5364 ft Runway width 98 ft
Runway elevation 62 ft Runway displaced threshold 0 ft Runway heading 110
Runway 28 Runway length 5364 ft Runway width 98 ft
Runway elevation 26 ft Runway displaced threshold 328 ft Runway heading 290

 AIRPORT FREQUENCIES
Type CTAF Name CTAF Frequency 118.8 MHZ
Type FSS Name BRISBANE C Frequency 119.55 MHZ

 AIRPORT NEAR NAVIGATION AIDS
Type VOR Name Gladstone Frequency 116300 KHZ
Type NDB Name Gladstone Frequency 236 KHZ



The South Africal Virtual Air Force